Flight Track Log - Related Links

Times and Time Zones

All times are in EDT time to prevent confusion due to time zone crossing. See the BAW2648 flight status page for this flight to view local times or setup timezone preferences in your user account.

Time Position Orientation Groundspeed Altitude Reporting Facility
EDT Latitude Longitude Course Direction KTS MPH feet Rate Location/Type
Sun 12:38:54 PM 51.1417 -0.2331 256° West 188 216 2,200  Level FlightAware UK
Sun 12:39:17 PM 51.1373 -0.2616 256° West 222 255 2,600 1,200 Climbing FlightAware UK
Sun 12:39:29 PM 51.1353 -0.2782 259° West 234 269 2,900 2,270 Climbing FlightAware UK
Sun 12:39:54 PM 51.1464 -0.3119 298° West 250 288 4,000 2,800 Climbing FlightAware UK
Sun 12:39:59 PM 51.1515 -0.3178 324° Northwest 252 290 4,300 3,000 Climbing FlightAware UK
Sun 12:40:06 PM 51.1577 -0.3221 336° Northwest 254 292 4,600 2,824 Climbing FlightAware UK
Sun 12:40:16 PM 51.1558 -0.3455 336° Northwest 256 295 5,100 2,800 Climbing FlightAware ADS-B
Sun 12:40:21 PM 51.1614 -0.3448 North 263 303 5,300 2,500 Climbing FlightAware ADS-B
Sun 12:40:28 PM 51.1697 -0.3413 15° North 275 316 5,600 2,182 Climbing FlightAware ADS-B
Sun 12:40:32 PM 51.1741 -0.3380 25° Northeast 280 322 5,700 2,400 Climbing FlightAware ADS-B
Sun 12:40:38 PM 51.1810 -0.3313 31° Northeast 286 329 6,000 1,500 Climbing FlightAware ADS-B
Sun 12:40:56 PM 51.2018 -0.3071 36° Northeast 313 360 6,300 474 Climbing FlightAware ADS-B
Sun 12:41:16 PM 51.2255 -0.2786 37° Northeast 343 395 6,300  Level FlightAware ADS-B
Sun 12:41:37 PM 51.2530 -0.2453 37° Northeast 351 404 6,300 -158 Level FlightAware ADS-B
Sun 12:41:54 PM 51.2742 -0.2194 37° Northeast 352 405 6,200 -222 Descending FlightAware ADS-B
Sun 12:42:04 PM 51.2878 -0.2026 38° Northeast 352 405 6,200 333 Level FlightAware ADS-B
Sun 12:42:12 PM 51.2966 -0.1884 45° Northeast 356 410 6,300 923 Climbing FlightAware ADS-B
Sun 12:42:17 PM 51.3012 -0.1781 54° Northeast 358 412 6,400 1,333 Climbing FlightAware ADS-B
Sun 12:42:21 PM 51.3044 -0.1689 61° Northeast 361 415 6,500 857 Climbing FlightAware ADS-B
Sun 12:42:24 PM 51.3070 -0.1597 66° East 364 419 6,500 1,500 Level FlightAware ADS-B
Sun 12:42:29 PM 51.3096 -0.1474 71° East 366 421 6,700 2,571 Climbing FlightAware ADS-B
Sun 12:42:38 PM 51.3123 -0.1246 79° East 365 420 7,100 3,000 Climbing FlightAware ADS-B
Sun 12:42:57 PM 51.3170 -0.0742 81° East 365 420 8,100 2,870 Climbing FlightAware ADS-B
Sun 12:43:24 PM 51.3237 -0.0007 82° East 372 428 9,300 2,400 Climbing FlightAware ADS-B
Sun 12:43:42 PM 51.3278 0.0471 82° East 379 436 9,900 2,160 Climbing FlightAware ADS-B
Sun 12:44:14 PM 51.3359 0.1375 82° East 391 450 11,100 2,571 Climbing FlightAware ADS-B
Sun 12:44:45 PM 51.3441 0.2290 82° East 392 451 12,600 2,737 Climbing FlightAware ADS-B
Sun 12:45:11 PM 51.3513 0.3025 81° East 399 459 13,700 2,339 Climbing FlightAware ADS-B
Sun 12:45:44 PM 51.3599 0.4022 82° East 412 474 14,900 2,440 Climbing FlightAware ADS-B
Sun 12:46:42 PM 51.3729 0.6057 82° East 378 435 17,400 2,434 Climbing FlightAware UK
Sun 12:47:30 PM 51.3533 0.7510 102° East 384 442 19,200 1,800 Climbing FlightAware UK
Sun 12:48:12 PM 51.3367 0.8853 101° East 406 467 20,100 1,462 Climbing FlightAware UK
Sun 12:48:48 PM 51.3219 1.0041 101° East 418 481 21,100 1,818 Climbing FlightAware UK
Sun 12:49:18 PM 51.3094 1.1050 101° East 416 479 22,100 1,900 Climbing FlightAware UK
Sun 12:49:48 PM 51.2965 1.2058 102° East 422 486 23,000 1,700 Climbing FlightAware UK
Sun 12:50:18 PM 51.2833 1.3083 102° East 430 495 23,800 1,475 Climbing FlightAware UK
Sun 12:50:49 PM 51.2695 1.4119 102° East 434 499 24,500 1,475 Climbing FlightAware UK
Sun 12:51:19 PM 51.2554 1.5156 102° East 436 502 25,300 1,500 Climbing FlightAware UK
Sun 12:51:49 PM 51.2407 1.6218 102° East 446 513 26,000 1,500 Climbing FlightAware UK
Sun 12:52:19 PM 51.2225 1.7259 106° East 452 520 26,800 1,500 Climbing FlightAware UK
Sun 12:52:49 PM 51.1953 1.8242 114° Southeast 448 516 27,500 1,200 Climbing FlightAware UK
Sun 12:53:04 PM 51.1697 1.8462 114° Southeast 496 571 27,700 894 Climbing FlightAware ADS-B
Sun 12:53:36 PM 51.1389 1.9561 114° Southeast 503 579 28,200 1,310 Climbing FlightAware ADS-B
Sun 12:54:31 PM 51.0994 2.1680 114° Southeast 458 527 29,600 1,624 Climbing FlightAware UK
Sun 12:55:01 PM 51.0707 2.2667 115° Southeast 452 520 30,500 1,400 Climbing FlightAware UK
Sun 12:55:31 PM 51.0424 2.3634 115° Southeast 450 518 31,000 417 Climbing FlightAware UK
Sun 12:56:13 PM 51.0024 2.5007 115° Southeast 450 518 31,000  Level FlightAware UK
Sun 12:56:43 PM 50.9740 2.5984 115° Southeast 452 520 31,000  Level FlightAware UK
Sun 12:57:55 PM 50.9058 2.8320 115° Southeast 454 522 31,000 -56 Level FlightAware UK
Sun 12:58:31 PM 50.8714 2.9480 115° Southeast 456 525 30,900 -91 Descending FlightAware UK
Sun 12:59:01 PM 50.8429 3.0442 115° Southeast 452 520 30,900  Level FlightAware UK
Sun 12:59:31 PM 50.8145 3.1403 115° Southeast 448 516 30,900  Level FlightAware UK
Sun 01:00:13 PM 50.7740 3.2748 115° Southeast 446 513 30,900  Level FlightAware UK
Sun 01:00:43 PM 50.7449 3.3704 116° Southeast 450 518 30,900  Level FlightAware UK
Sun 01:01:31 PM 50.6985 3.5238 116° Southeast 454 522 30,900  Level FlightAware UK
Sun 01:02:07 PM 50.6638 3.6389 115° Southeast 452 520 30,900  Level FlightAware UK
Sun 01:03:01 PM 50.6111 3.8104 116° Southeast 450 518 30,900 56 Level FlightAware UK
Sun 01:03:55 PM 50.5584 3.9812 116° Southeast 452 520 31,000  Climbing FlightAware UK
Sun 01:05:20 PM 50.4761 4.2464 116° Southeast 1 1 30,900  Descending FlightAware UK
Sun 01:05:50 PM 50.4478 4.3428 115° Southeast 1 1 31,000 100 Climbing FlightAware UK
Sun 01:06:20 PM 50.4160 4.4329 119° Southeast 1 1 31,000  Level FlightAware UK
Sun 01:08:00 PM 50.3136 4.6655 125° Southeast  Level Estimated
Sun 01:15:00 PM 49.8784 5.6318 125° Southeast  Level Estimated
Sun 01:16:00 PM 49.8156 5.7685 125° Southeast  Level Estimated
Sun 01:17:00 PM 49.7526 5.9047 126° Southeast  Level Estimated
Sun 01:18:00 PM 49.6895 6.0406 126° Southeast  Level Estimated
Sun 01:19:00 PM 49.6262 6.1762 126° Southeast  Level Estimated
Sun 01:20:00 PM 49.5627 6.3114 126° Southeast  Level Estimated
Sun 01:21:00 PM 49.4991 6.4462 126° Southeast  Level Estimated
Sun 01:22:00 PM 49.4353 6.5807 126° Southeast  Level Estimated
Sun 01:23:00 PM 49.3714 6.7149 126° Southeast  Level Estimated
Sun 01:24:00 PM 49.3073 6.8487 126° Southeast  Level Estimated
Sun 01:25:00 PM 49.2431 6.9821 126° Southeast  Level Estimated
Sun 01:26:00 PM 49.1787 7.1153 126° Southeast  Level Estimated
Sun 01:27:00 PM 49.1142 7.2480 127° Southeast  Level Estimated
Sun 01:28:00 PM 49.0495 7.3804 127° Southeast  Level Estimated
Sun 01:29:00 PM 48.9846 7.5125 127° Southeast  Level Estimated
Sun 01:30:00 PM 48.9196 7.6442 127° Southeast  Level Estimated
Sun 01:31:00 PM 48.8545 7.7756 127° Southeast  Level Estimated
Sun 01:32:00 PM 48.7892 7.9066 127° Southeast  Level Estimated
Sun 01:33:00 PM 48.7238 8.0373 127° Southeast  Level Estimated
Sun 01:34:00 PM 48.6582 8.1677 127° Southeast  Level Estimated
Sun 01:35:00 PM 48.5924 8.2977 127° Southeast  Level Estimated
Sun 01:36:00 PM 48.5266 8.4274 127° Southeast  Level Estimated
Sun 01:37:00 PM 48.4605 8.5568 128° Southeast  Level Estimated
Sun 01:38:00 PM 48.3943 8.6858 128° Southeast  Level Estimated
Sun 01:39:00 PM 48.3280 8.8144 128° Southeast  Level Estimated
Sun 01:40:00 PM 48.2616 8.9428 128° Southeast  Level Estimated
Sun 01:41:00 PM 48.1950 9.0708 128° Southeast  Level Estimated
Sun 01:42:00 PM 48.1282 9.1985 128° Southeast  Level Estimated
Sun 01:43:00 PM 48.0614 9.3258 128° Southeast  Level Estimated
Sun 01:44:00 PM 47.9943 9.4528 128° Southeast  Level Estimated
Sun 01:45:00 PM 47.9272 9.5795 128° Southeast  Level Estimated
Sun 01:46:00 PM 47.8599 9.7058 128° Southeast  Level Estimated
Sun 01:47:00 PM 47.7924 9.8319 129° Southeast  Level Estimated
Sun 01:48:00 PM 47.7248 9.9576 129° Southeast  Level Estimated
Sun 01:49:00 PM 47.6571 10.0829 129° Southeast  Level Estimated
Sun 01:50:00 PM 47.5893 10.2080 129° Southeast  Level Estimated
Sun 01:51:00 PM 47.5213 10.3327 129° Southeast  Level Estimated
Sun 01:52:00 PM 47.4532 10.4571 129° Southeast  Level Estimated
Sun 01:53:00 PM 47.3849 10.5812 129° Southeast  Level Estimated
Sun 01:54:00 PM 47.3165 10.7049 129° Southeast  Level Estimated
Sun 01:55:00 PM 47.2480 10.8284 129° Southeast  Level Estimated
Sun 01:56:00 PM 47.1793 10.9515 129° Southeast  Level Estimated
Sun 01:57:00 PM 47.1105 11.0743 129° Southeast  Level Estimated
Sun 01:58:00 PM 47.0416 11.1967 130° Southeast  Level Estimated
Sun 01:59:00 PM 46.9726 11.3189 130° Southeast  Level Estimated
Sun 02:00:00 PM 46.9034 11.4408 130° Southeast  Level Estimated
Sun 02:01:00 PM 46.8341 11.5623 130° Southeast  Level Estimated
Sun 02:02:00 PM 46.7647 11.6835 130° Southeast  Level Estimated
Sun 02:03:00 PM 46.6951 11.8044 130° Southeast  Level Estimated
Sun 02:04:00 PM 46.6254 11.9250 130° Southeast  Level Estimated
Sun 02:05:00 PM 46.5556 12.0453 130° Southeast  Level Estimated
Sun 02:06:00 PM 46.4856 12.1653 130° Southeast  Level Estimated
Sun 02:07:00 PM 46.4156 12.2850 130° Southeast  Level Estimated
Sun 02:08:00 PM 46.3454 12.4043 130° Southeast  Level Estimated
Sun 02:09:00 PM 46.2751 12.5234 130° Southeast  Level Estimated
Sun 02:10:00 PM 46.2046 12.6421 131° Southeast  Level Estimated
Sun 02:11:00 PM 46.1341 12.7605 131° Southeast  Level Estimated
Sun 02:12:00 PM 46.0634 12.8787 131° Southeast  Level Estimated
Sun 02:13:00 PM 45.9926 12.9965 131° Southeast  Level Estimated
Sun 02:14:00 PM 45.9217 13.1141 131° Southeast  Level Estimated
Sun 02:15:00 PM 45.8506 13.2313 131° Southeast  Level Estimated
Sun 02:16:00 PM 45.7795 13.3483 131° Southeast  Level Estimated
Sun 02:17:00 PM 45.7082 13.4649 131° Southeast  Level Estimated
Sun 02:18:00 PM 45.6368 13.5812 131° Southeast  Level Estimated
Sun 02:19:00 PM 45.5653 13.6973 131° Southeast  Level Estimated
Sun 02:20:00 PM 45.4936 13.8130 131° Southeast  Level Estimated
Sun 02:21:00 PM 45.4219 13.9285 132° Southeast  Level Estimated
Sun 02:22:00 PM 45.3500 14.0436 132° Southeast  Level Estimated
Sun 02:23:00 PM 45.2761 14.1616 132° Southeast  Level Estimated
Sun 02:24:00 PM 45.2021 14.2792 132° Southeast  Level Estimated
Sun 02:25:00 PM 45.1280 14.3965 132° Southeast  Level Estimated
Sun 02:26:00 PM 45.0537 14.5134 132° Southeast  Level Estimated
Sun 02:27:00 PM 44.9794 14.6301 132° Southeast  Level Estimated
Sun 02:28:00 PM 44.9049 14.7465 132° Southeast  Level Estimated
Sun 02:29:00 PM 44.8302 14.8626 132° Southeast  Level Estimated
Sun 02:30:00 PM 44.7555 14.9784 132° Southeast  Level Estimated
Sun 02:31:00 PM 44.6807 15.0939 132° Southeast  Level Estimated
Sun 02:32:00 PM 44.6057 15.2091 132° Southeast  Level Estimated
Sun 02:33:00 PM 44.5306 15.3239 132° Southeast  Level Estimated
Sun 02:34:00 PM 44.4554 15.4385 133° Southeast  Level Estimated
Sun 02:35:00 PM 44.3801 15.5528 133° Southeast  Level Estimated
Sun 02:36:00 PM 44.3047 15.6668 133° Southeast  Level Estimated
Sun 02:37:00 PM 44.2292 15.7805 133° Southeast  Level Estimated
Sun 02:38:00 PM 44.1535 15.8940 133° Southeast  Level Estimated
Sun 02:39:00 PM 44.0778 16.0071 133° Southeast  Level Estimated
Sun 02:40:00 PM 44.0019 16.1199 133° Southeast  Level Estimated
Sun 02:41:00 PM 43.9259 16.2325 133° Southeast  Level Estimated
Sun 02:42:00 PM 43.8498 16.3447 133° Southeast  Level Estimated
Sun 02:43:00 PM 43.7737 16.4567 133° Southeast  Level Estimated
Sun 02:44:00 PM 43.6973 16.5684 133° Southeast  Level Estimated
Sun 02:45:00 PM 43.6209 16.6798 133° Southeast  Level Estimated
Sun 02:46:00 PM 43.5444 16.7910 134° Southeast  Level Estimated
Sun 02:47:00 PM 43.4678 16.9018 134° Southeast  Level Estimated
Sun 02:48:00 PM 43.3910 17.0124 134° Southeast  Level Estimated
Sun 02:49:00 PM 43.3142 17.1226 134° Southeast  Level Estimated
Sun 02:50:00 PM 43.2372 17.2326 134° Southeast  Level Estimated
Sun 02:51:00 PM 43.1602 17.3424 134° Southeast  Level Estimated
Sun 02:52:00 PM 43.0830 17.4518 134° Southeast  Level Estimated
Sun 02:53:00 PM 43.0058 17.5610 134° Southeast  Level Estimated
Sun 02:54:00 PM 42.9284 17.6699 134° Southeast  Level Estimated
Sun 02:55:00 PM 42.8509 17.7785 134° Southeast  Level Estimated
Sun 02:56:00 PM 42.7734 17.8869 134° Southeast  Level Estimated
Sun 02:57:00 PM 42.6957 17.9949 134° Southeast  Level Estimated
Sun 02:58:00 PM 42.6179 18.1028 134° Southeast  Level Estimated
Sun 02:59:00 PM 42.5400 18.2103 134° Southeast  Level Estimated
Sun 03:00:00 PM 42.4621 18.3176 135° Southeast  Level Estimated
Sun 03:01:00 PM 42.3840 18.4246 135° Southeast  Level Estimated
Sun 03:02:00 PM 42.3058 18.5313 135° Southeast  Level Estimated
Sun 03:03:00 PM 42.2275 18.6378 135° Southeast  Level Estimated
Sun 03:04:00 PM 42.1492 18.7440 135° Southeast  Level Estimated
Sun 03:05:00 PM 42.0707 18.8500 135° Southeast  Level Estimated
Sun 03:06:00 PM 41.9921 18.9557 135° Southeast  Level Estimated
Sun 03:07:00 PM 41.9134 19.0611 135° Southeast  Level Estimated
Sun 03:08:00 PM 41.8347 19.1663 135° Southeast  Level Estimated
Sun 03:09:00 PM 41.7558 19.2712 135° Southeast  Level Estimated
Sun 03:10:00 PM 41.6769 19.3758 135° Southeast  Level Estimated
Sun 03:11:00 PM 41.5978 19.4802 135° Southeast  Level Estimated

Login

Don't have an account? Register now (free) for customized features, flight alerts, and more!